sensor_id;sensor_type;location;lat;lon;timestamp;P1;durP1;ratioP1;P2;durP2;ratioP2
56760;SDS011;42633;44.494;11.356;2022-07-06T00:01:23;11.43;;;4.45;;
56760;SDS011;42633;44.494;11.356;2022-07-06T00:04:27;13.15;;;4.97;;
56760;SDS011;42633;44.494;11.356;2022-07-06T00:07:31;14.73;;;5.30;;
56760;SDS011;42633;44.494;11.356;2022-07-06T00:10:36;12.07;;;5.03;;
56760;SDS011;42633;44.494;11.356;2022-07-06T00:13:40;13.23;;;4.55;;
56760;SDS011;42633;44.494;11.356;2022-07-06T00:16:45;7.72;;;4.43;;
56760;SDS011;42633;44.494;11.356;2022-07-06T00:19:49;9.35;;;4.40;;
56760;SDS011;42633;44.494;11.356;2022-07-06T00:22:53;11.20;;;5.00;;
56760;SDS011;42633;44.494;11.356;2022-07-06T00:25:57;14.07;;;6.68;;
56760;SDS011;42633;44.494;11.356;2022-07-06T00:29:01;10.98;;;6.32;;
56760;SDS011;42633;44.494;11.356;2022-07-06T00:32:06;15.45;;;8.27;;
56760;SDS011;42633;44.494;11.356;2022-07-06T00:35:10;13.27;;;9.48;;
56760;SDS011;42633;44.494;11.356;2022-07-06T00:38:14;17.65;;;9.02;;
56760;SDS011;42633;44.494;11.356;2022-07-06T00:41:18;18.50;;;10.23;;
56760;SDS011;42633;44.494;11.356;2022-07-06T00:44:23;17.48;;;10.20;;
56760;SDS011;42633;44.494;11.356;2022-07-06T00:47:27;14.45;;;9.70;;
56760;SDS011;42633;44.494;11.356;2022-07-06T00:50:32;11.52;;;8.45;;
56760;SDS011;42633;44.494;11.356;2022-07-06T00:53:37;16.13;;;9.98;;
56760;SDS011;42633;44.494;11.356;2022-07-06T00:56:42;11.95;;;9.95;;
56760;SDS011;42633;44.494;11.356;2022-07-06T00:59:46;14.68;;;9.65;;
56760;SDS011;42633;44.494;11.356;2022-07-06T01:02:52;9.38;;;7.93;;
56760;SDS011;42633;44.494;11.356;2022-07-06T01:05:57;12.88;;;7.18;;
56760;SDS011;42633;44.494;11.356;2022-07-06T01:09:01;11.30;;;6.78;;
56760;SDS011;42633;44.494;11.356;2022-07-06T01:12:06;9.55;;;6.28;;
56760;SDS011;42633;44.494;11.356;2022-07-06T01:15:13;7.88;;;5.97;;
56760;SDS011;42633;44.494;11.356;2022-07-06T01:18:27;7.78;;;5.40;;
56760;SDS011;42633;44.494;11.356;2022-07-06T01:21:31;6.18;;;5.45;;
56760;SDS011;42633;44.494;11.356;2022-07-06T01:24:35;7.95;;;5.15;;
56760;SDS011;42633;44.494;11.356;2022-07-06T01:27:40;10.25;;;4.60;;
56760;SDS011;42633;44.494;11.356;2022-07-06T01:30:45;9.25;;;4.95;;
56760;SDS011;42633;44.494;11.356;2022-07-06T01:33:50;8.90;;;5.03;;
56760;SDS011;42633;44.494;11.356;2022-07-06T01:36:55;6.45;;;4.00;;
56760;SDS011;42633;44.494;11.356;2022-07-06T01:39:59;6.38;;;4.10;;
56760;SDS011;42633;44.494;11.356;2022-07-06T01:43:04;8.23;;;3.47;;
56760;SDS011;42633;44.494;11.356;2022-07-06T01:46:08;9.25;;;3.70;;
56760;SDS011;42633;44.494;11.356;2022-07-06T01:49:13;10.50;;;4.18;;
56760;SDS011;42633;44.494;11.356;2022-07-06T01:52:17;6.38;;;4.10;;
56760;SDS011;42633;44.494;11.356;2022-07-06T01:55:21;10.27;;;3.80;;
56760;SDS011;42633;44.494;11.356;2022-07-06T01:58:25;3.85;;;3.20;;
56760;SDS011;42633;44.494;11.356;2022-07-06T02:01:29;6.75;;;3.28;;
56760;SDS011;42633;44.494;11.356;2022-07-06T02:04:33;6.57;;;3.38;;
56760;SDS011;42633;44.494;11.356;2022-07-06T02:07:38;6.28;;;3.38;;
56760;SDS011;42633;44.494;11.356;2022-07-06T02:10:44;6.32;;;3.10;;
56760;SDS011;42633;44.494;11.356;2022-07-06T02:13:48;6.15;;;2.80;;
56760;SDS011;42633;44.494;11.356;2022-07-06T02:16:52;6.80;;;3.38;;
56760;SDS011;42633;44.494;11.356;2022-07-06T02:19:56;8.25;;;2.90;;
56760;SDS011;42633;44.494;11.356;2022-07-06T02:23:00;3.90;;;2.97;;
56760;SDS011;42633;44.494;11.356;2022-07-06T02:26:04;7.05;;;3.13;;
56760;SDS011;42633;44.494;11.356;2022-07-06T02:29:08;7.20;;;3.10;;
56760;SDS011;42633;44.494;11.356;2022-07-06T02:32:12;6.95;;;2.75;;
56760;SDS011;42633;44.494;11.356;2022-07-06T02:35:17;6.30;;;3.17;;
56760;SDS011;42633;44.494;11.356;2022-07-06T02:38:21;5.15;;;2.83;;
56760;SDS011;42633;44.494;11.356;2022-07-06T02:41:25;6.28;;;3.55;;
56760;SDS011;42633;44.494;11.356;2022-07-06T02:44:29;7.45;;;2.80;;
56760;SDS011;42633;44.494;11.356;2022-07-06T02:47:34;9.55;;;2.85;;
56760;SDS011;42633;44.494;11.356;2022-07-06T02:50:38;6.75;;;2.90;;
56760;SDS011;42633;44.494;11.356;2022-07-06T02:53:42;7.47;;;3.17;;
56760;SDS011;42633;44.494;11.356;2022-07-06T02:56:45;7.32;;;3.35;;
56760;SDS011;42633;44.494;11.356;2022-07-06T02:59:54;6.47;;;3.30;;
56760;SDS011;42633;44.494;11.356;2022-07-06T03:02:58;8.75;;;3.50;;
56760;SDS011;42633;44.494;11.356;2022-07-06T03:06:02;9.63;;;3.28;;
56760;SDS011;42633;44.494;11.356;2022-07-06T03:09:08;6.47;;;3.20;;
56760;SDS011;42633;44.494;11.356;2022-07-06T03:12:13;9.15;;;3.33;;
56760;SDS011;42633;44.494;11.356;2022-07-06T03:15:18;7.07;;;3.15;;
56760;SDS011;42633;44.494;11.356;2022-07-06T03:18:23;5.65;;;2.95;;
56760;SDS011;42633;44.494;11.356;2022-07-06T03:21:28;9.43;;;3.13;;
56760;SDS011;42633;44.494;11.356;2022-07-06T03:24:32;7.60;;;3.30;;
56760;SDS011;42633;44.494;11.356;2022-07-06T03:27:36;6.68;;;3.13;;
56760;SDS011;42633;44.494;11.356;2022-07-06T03:30:41;9.13;;;2.65;;
56760;SDS011;42633;44.494;11.356;2022-07-06T03:33:45;11.70;;;3.20;;
56760;SDS011;42633;44.494;11.356;2022-07-06T03:36:49;11.75;;;2.38;;
56760;SDS011;42633;44.494;11.356;2022-07-06T03:39:53;4.18;;;2.33;;
56760;SDS011;42633;44.494;11.356;2022-07-06T03:42:57;9.13;;;2.60;;
56760;SDS011;42633;44.494;11.356;2022-07-06T03:46:03;6.53;;;2.58;;
56760;SDS011;42633;44.494;11.356;2022-07-06T03:49:07;9.52;;;2.88;;
56760;SDS011;42633;44.494;11.356;2022-07-06T03:52:11;7.57;;;2.90;;
56760;SDS011;42633;44.494;11.356;2022-07-06T03:55:22;7.18;;;2.70;;
56760;SDS011;42633;44.494;11.356;2022-07-06T03:58:32;4.38;;;1.77;;
56760;SDS011;42633;44.494;11.356;2022-07-06T04:01:36;9.85;;;2.78;;
56760;SDS011;42633;44.494;11.356;2022-07-06T04:04:41;15.30;;;4.40;;
56760;SDS011;42633;44.494;11.356;2022-07-06T04:07:45;10.43;;;2.10;;
56760;SDS011;42633;44.494;11.356;2022-07-06T04:13:56;8.63;;;2.22;;
56760;SDS011;42633;44.494;11.356;2022-07-06T04:17:01;7.32;;;1.90;;
56760;SDS011;42633;44.494;11.356;2022-07-06T04:20:27;11.52;;;2.42;;
56760;SDS011;42633;44.494;11.356;2022-07-06T04:23:33;7.37;;;2.60;;
56760;SDS011;42633;44.494;11.356;2022-07-06T04:26:39;8.18;;;1.88;;
56760;SDS011;42633;44.494;11.356;2022-07-06T04:29:43;7.43;;;1.80;;
56760;SDS011;42633;44.494;11.356;2022-07-06T04:32:47;6.38;;;2.45;;
56760;SDS011;42633;44.494;11.356;2022-07-06T04:35:52;10.30;;;2.65;;
56760;SDS011;42633;44.494;11.356;2022-07-06T04:38:59;7.22;;;2.08;;
56760;SDS011;42633;44.494;11.356;2022-07-06T04:42:04;8.15;;;2.58;;
56760;SDS011;42633;44.494;11.356;2022-07-06T04:45:09;10.02;;;2.95;;
56760;SDS011;42633;44.494;11.356;2022-07-06T04:48:13;8.75;;;2.95;;
56760;SDS011;42633;44.494;11.356;2022-07-06T04:51:18;10.60;;;3.30;;
56760;SDS011;42633;44.494;11.356;2022-07-06T04:54:22;9.50;;;2.63;;
56760;SDS011;42633;44.494;11.356;2022-07-06T04:57:26;6.30;;;2.70;;
56760;SDS011;42633;44.494;11.356;2022-07-06T05:00:34;9.48;;;3.40;;
56760;SDS011;42633;44.494;11.356;2022-07-06T05:03:39;10.15;;;2.97;;
56760;SDS011;42633;44.494;11.356;2022-07-06T05:06:45;8.90;;;3.35;;
56760;SDS011;42633;44.494;11.356;2022-07-06T05:09:50;5.22;;;2.60;;
56760;SDS011;42633;44.494;11.356;2022-07-06T05:12:54;8.98;;;3.97;;
56760;SDS011;42633;44.494;11.356;2022-07-06T05:15:59;8.88;;;3.22;;
56760;SDS011;42633;44.494;11.356;2022-07-06T05:19:04;10.32;;;2.67;;
56760;SDS011;42633;44.494;11.356;2022-07-06T05:22:08;6.55;;;2.80;;
56760;SDS011;42633;44.494;11.356;2022-07-06T05:25:12;14.50;;;3.35;;
56760;SDS011;42633;44.494;11.356;2022-07-06T05:28:16;10.77;;;3.00;;
56760;SDS011;42633;44.494;11.356;2022-07-06T05:31:21;8.60;;;2.67;;
56760;SDS011;42633;44.494;11.356;2022-07-06T05:34:26;9.38;;;3.15;;
56760;SDS011;42633;44.494;11.356;2022-07-06T05:37:30;9.13;;;2.70;;
56760;SDS011;42633;44.494;11.356;2022-07-06T05:40:35;10.57;;;2.90;;
56760;SDS011;42633;44.494;11.356;2022-07-06T05:43:39;6.40;;;2.30;;
56760;SDS011;42633;44.494;11.356;2022-07-06T05:46:43;8.48;;;2.63;;
56760;SDS011;42633;44.494;11.356;2022-07-06T05:49:48;8.02;;;2.72;;
56760;SDS011;42633;44.494;11.356;2022-07-06T05:53:10;11.63;;;2.10;;
56760;SDS011;42633;44.494;11.356;2022-07-06T05:56:14;8.77;;;2.40;;
56760;SDS011;42633;44.494;11.356;2022-07-06T05:59:19;6.53;;;2.55;;
56760;SDS011;42633;44.494;11.356;2022-07-06T06:02:24;9.80;;;3.65;;
56760;SDS011;42633;44.494;11.356;2022-07-06T06:05:28;9.25;;;3.25;;
56760;SDS011;42633;44.494;11.356;2022-07-06T06:08:37;13.02;;;3.53;;
56760;SDS011;42633;44.494;11.356;2022-07-06T06:11:42;5.65;;;2.35;;
56760;SDS011;42633;44.494;11.356;2022-07-06T06:14:47;6.80;;;2.20;;
56760;SDS011;42633;44.494;11.356;2022-07-06T06:17:51;14.10;;;2.50;;
56760;SDS011;42633;44.494;11.356;2022-07-06T06:20:55;9.32;;;2.17;;
56760;SDS011;42633;44.494;11.356;2022-07-06T06:23:59;14.85;;;4.15;;
56760;SDS011;42633;44.494;11.356;2022-07-06T06:27:03;8.32;;;2.75;;
56760;SDS011;42633;44.494;11.356;2022-07-06T06:30:07;11.27;;;2.13;;
56760;SDS011;42633;44.494;11.356;2022-07-06T06:36:20;14.95;;;2.30;;
56760;SDS011;42633;44.494;11.356;2022-07-06T06:39:24;11.52;;;2.15;;
56760;SDS011;42633;44.494;11.356;2022-07-06T06:42:28;10.18;;;2.20;;
56760;SDS011;42633;44.494;11.356;2022-07-06T06:45:34;13.85;;;2.05;;
56760;SDS011;42633;44.494;11.356;2022-07-06T06:48:38;11.05;;;2.10;;
56760;SDS011;42633;44.494;11.356;2022-07-06T06:51:42;9.02;;;2.20;;
56760;SDS011;42633;44.494;11.356;2022-07-06T06:54:46;13.98;;;2.30;;
56760;SDS011;42633;44.494;11.356;2022-07-06T06:57:50;8.15;;;2.60;;
56760;SDS011;42633;44.494;11.356;2022-07-06T07:00:55;11.07;;;2.33;;
56760;SDS011;42633;44.494;11.356;2022-07-06T07:03:59;12.85;;;2.20;;
56760;SDS011;42633;44.494;11.356;2022-07-06T07:07:03;15.15;;;3.38;;
56760;SDS011;42633;44.494;11.356;2022-07-06T07:10:07;10.77;;;2.65;;
56760;SDS011;42633;44.494;11.356;2022-07-06T07:13:11;9.35;;;2.40;;
56760;SDS011;42633;44.494;11.356;2022-07-06T07:16:15;6.38;;;1.80;;
56760;SDS011;42633;44.494;11.356;2022-07-06T07:19:20;7.13;;;3.22;;
56760;SDS011;42633;44.494;11.356;2022-07-06T07:22:24;10.55;;;2.95;;
56760;SDS011;42633;44.494;11.356;2022-07-06T07:25:27;9.30;;;2.05;;
56760;SDS011;42633;44.494;11.356;2022-07-06T07:28:32;9.23;;;2.38;;
56760;SDS011;42633;44.494;11.356;2022-07-06T07:31:36;11.98;;;4.53;;
56760;SDS011;42633;44.494;11.356;2022-07-06T07:34:40;8.93;;;2.10;;
56760;SDS011;42633;44.494;11.356;2022-07-06T07:37:43;9.98;;;2.30;;
56760;SDS011;42633;44.494;11.356;2022-07-06T07:40:48;5.50;;;1.60;;
56760;SDS011;42633;44.494;11.356;2022-07-06T07:43:52;7.38;;;1.90;;
56760;SDS011;42633;44.494;11.356;2022-07-06T07:46:56;9.05;;;2.78;;
56760;SDS011;42633;44.494;11.356;2022-07-06T07:50:00;7.20;;;2.67;;
56760;SDS011;42633;44.494;11.356;2022-07-06T07:53:04;10.20;;;2.40;;
56760;SDS011;42633;44.494;11.356;2022-07-06T07:56:08;8.95;;;2.20;;
56760;SDS011;42633;44.494;11.356;2022-07-06T07:59:13;8.70;;;2.95;;
56760;SDS011;42633;44.494;11.356;2022-07-06T08:02:19;8.83;;;2.10;;
56760;SDS011;42633;44.494;11.356;2022-07-06T08:05:23;10.32;;;3.10;;
56760;SDS011;42633;44.494;11.356;2022-07-06T08:08:27;8.45;;;2.42;;
56760;SDS011;42633;44.494;11.356;2022-07-06T08:11:31;14.35;;;2.50;;
56760;SDS011;42633;44.494;11.356;2022-07-06T08:14:36;12.35;;;3.20;;
56760;SDS011;42633;44.494;11.356;2022-07-06T08:17:41;11.10;;;2.63;;
56760;SDS011;42633;44.494;11.356;2022-07-06T08:20:44;9.80;;;2.65;;
56760;SDS011;42633;44.494;11.356;2022-07-06T08:23:48;8.48;;;2.70;;
56760;SDS011;42633;44.494;11.356;2022-07-06T08:26:52;8.02;;;2.75;;
56760;SDS011;42633;44.494;11.356;2022-07-06T08:29:57;12.23;;;2.97;;
56760;SDS011;42633;44.494;11.356;2022-07-06T08:33:01;8.68;;;2.42;;
56760;SDS011;42633;44.494;11.356;2022-07-06T08:36:06;10.45;;;2.45;;
56760;SDS011;42633;44.494;11.356;2022-07-06T08:39:10;6.57;;;1.90;;
56760;SDS011;42633;44.494;11.356;2022-07-06T08:42:15;15.82;;;2.63;;
56760;SDS011;42633;44.494;11.356;2022-07-06T08:45:20;8.77;;;2.45;;
56760;SDS011;42633;44.494;11.356;2022-07-06T08:48:25;8.77;;;3.03;;
56760;SDS011;42633;44.494;11.356;2022-07-06T08:51:35;8.82;;;2.78;;
56760;SDS011;42633;44.494;11.356;2022-07-06T08:54:40;10.70;;;2.25;;
56760;SDS011;42633;44.494;11.356;2022-07-06T08:57:48;10.38;;;1.88;;
56760;SDS011;42633;44.494;11.356;2022-07-06T09:00:53;10.13;;;2.50;;
56760;SDS011;42633;44.494;11.356;2022-07-06T09:03:58;8.98;;;2.60;;
56760;SDS011;42633;44.494;11.356;2022-07-06T09:07:04;9.52;;;2.83;;
56760;SDS011;42633;44.494;11.356;2022-07-06T09:10:08;7.60;;;2.60;;
56760;SDS011;42633;44.494;11.356;2022-07-06T09:13:13;6.55;;;2.50;;
56760;SDS011;42633;44.494;11.356;2022-07-06T09:16:17;6.65;;;2.60;;
56760;SDS011;42633;44.494;11.356;2022-07-06T09:19:30;5.57;;;2.00;;
56760;SDS011;42633;44.494;11.356;2022-07-06T09:22:36;7.97;;;2.38;;
56760;SDS011;42633;44.494;11.356;2022-07-06T09:25:41;9.60;;;2.60;;
56760;SDS011;42633;44.494;11.356;2022-07-06T09:28:45;6.13;;;2.20;;
56760;SDS011;42633;44.494;11.356;2022-07-06T09:31:59;6.57;;;2.45;;
56760;SDS011;42633;44.494;11.356;2022-07-06T09:35:04;8.40;;;3.38;;
56760;SDS011;42633;44.494;11.356;2022-07-06T09:38:09;9.90;;;2.42;;
56760;SDS011;42633;44.494;11.356;2022-07-06T09:41:29;7.18;;;2.40;;
56760;SDS011;42633;44.494;11.356;2022-07-06T09:44:36;9.77;;;3.15;;
56760;SDS011;42633;44.494;11.356;2022-07-06T09:47:49;8.32;;;2.25;;
56760;SDS011;42633;44.494;11.356;2022-07-06T09:50:55;10.35;;;2.47;;
56760;SDS011;42633;44.494;11.356;2022-07-06T09:54:07;6.25;;;2.50;;
56760;SDS011;42633;44.494;11.356;2022-07-06T09:57:15;9.88;;;3.25;;
56760;SDS011;42633;44.494;11.356;2022-07-06T10:00:20;5.82;;;2.40;;
56760;SDS011;42633;44.494;11.356;2022-07-06T10:03:24;4.78;;;1.70;;
56760;SDS011;42633;44.494;11.356;2022-07-06T10:06:28;9.57;;;3.28;;
56760;SDS011;42633;44.494;11.356;2022-07-06T10:09:32;5.88;;;2.13;;
56760;SDS011;42633;44.494;11.356;2022-07-06T10:12:39;5.00;;;2.42;;
56760;SDS011;42633;44.494;11.356;2022-07-06T10:15:45;3.90;;;1.83;;
56760;SDS011;42633;44.494;11.356;2022-07-06T10:18:51;7.97;;;2.83;;
56760;SDS011;42633;44.494;11.356;2022-07-06T10:21:59;9.55;;;4.35;;
56760;SDS011;42633;44.494;11.356;2022-07-06T10:25:05;6.90;;;3.17;;
56760;SDS011;42633;44.494;11.356;2022-07-06T10:28:09;13.27;;;3.13;;
56760;SDS011;42633;44.494;11.356;2022-07-06T10:31:18;7.25;;;2.65;;
56760;SDS011;42633;44.494;11.356;2022-07-06T10:34:24;11.70;;;5.97;;
56760;SDS011;42633;44.494;11.356;2022-07-06T10:37:29;10.38;;;3.33;;
56760;SDS011;42633;44.494;11.356;2022-07-06T10:40:40;9.05;;;2.10;;
56760;SDS011;42633;44.494;11.356;2022-07-06T10:44:17;9.95;;;4.28;;
56760;SDS011;42633;44.494;11.356;2022-07-06T10:47:27;6.65;;;2.58;;
56760;SDS011;42633;44.494;11.356;2022-07-06T10:50:34;8.38;;;2.60;;
56760;SDS011;42633;44.494;11.356;2022-07-06T10:53:40;5.63;;;2.15;;
56760;SDS011;42633;44.494;11.356;2022-07-06T10:56:46;5.85;;;2.58;;
56760;SDS011;42633;44.494;11.356;2022-07-06T11:00:04;9.68;;;3.15;;
56760;SDS011;42633;44.494;11.356;2022-07-06T11:06:39;4.70;;;2.58;;
56760;SDS011;42633;44.494;11.356;2022-07-06T11:09:56;6.38;;;2.45;;
56760;SDS011;42633;44.494;11.356;2022-07-06T11:13:02;5.65;;;1.80;;
56760;SDS011;42633;44.494;11.356;2022-07-06T11:16:06;8.10;;;2.40;;
56760;SDS011;42633;44.494;11.356;2022-07-06T11:19:11;5.47;;;2.80;;
56760;SDS011;42633;44.494;11.356;2022-07-06T11:22:17;7.38;;;1.83;;
56760;SDS011;42633;44.494;11.356;2022-07-06T11:25:22;8.10;;;1.90;;
56760;SDS011;42633;44.494;11.356;2022-07-06T11:28:26;6.32;;;1.80;;
56760;SDS011;42633;44.494;11.356;2022-07-06T11:31:32;3.10;;;1.70;;
56760;SDS011;42633;44.494;11.356;2022-07-06T11:34:43;10.30;;;1.85;;
56760;SDS011;42633;44.494;11.356;2022-07-06T11:37:47;3.65;;;1.80;;
56760;SDS011;42633;44.494;11.356;2022-07-06T11:40:53;5.15;;;1.60;;
56760;SDS011;42633;44.494;11.356;2022-07-06T11:43:57;5.38;;;2.53;;
56760;SDS011;42633;44.494;11.356;2022-07-06T11:47:02;6.15;;;1.88;;
56760;SDS011;42633;44.494;11.356;2022-07-06T11:50:07;3.67;;;2.00;;
56760;SDS011;42633;44.494;11.356;2022-07-06T11:53:14;3.60;;;2.03;;
56760;SDS011;42633;44.494;11.356;2022-07-06T11:56:18;6.88;;;1.80;;
56760;SDS011;42633;44.494;11.356;2022-07-06T11:59:26;6.75;;;1.60;;
56760;SDS011;42633;44.494;11.356;2022-07-06T12:02:30;6.43;;;1.85;;
56760;SDS011;42633;44.494;11.356;2022-07-06T12:05:34;6.13;;;1.80;;
56760;SDS011;42633;44.494;11.356;2022-07-06T12:08:42;2.60;;;2.03;;
56760;SDS011;42633;44.494;11.356;2022-07-06T12:11:50;5.68;;;1.60;;
56760;SDS011;42633;44.494;11.356;2022-07-06T12:14:55;8.55;;;3.58;;
56760;SDS011;42633;44.494;11.356;2022-07-06T12:17:59;7.80;;;2.03;;
56760;SDS011;42633;44.494;11.356;2022-07-06T12:21:03;5.60;;;2.15;;
56760;SDS011;42633;44.494;11.356;2022-07-06T12:24:07;6.82;;;1.67;;
56760;SDS011;42633;44.494;11.356;2022-07-06T12:27:16;8.00;;;2.28;;
56760;SDS011;42633;44.494;11.356;2022-07-06T12:30:21;5.07;;;1.80;;
56760;SDS011;42633;44.494;11.356;2022-07-06T12:33:25;5.70;;;2.35;;
56760;SDS011;42633;44.494;11.356;2022-07-06T12:36:31;8.05;;;2.40;;
56760;SDS011;42633;44.494;11.356;2022-07-06T12:39:54;5.68;;;2.25;;
56760;SDS011;42633;44.494;11.356;2022-07-06T12:42:59;5.65;;;2.13;;
56760;SDS011;42633;44.494;11.356;2022-07-06T12:49:31;4.75;;;1.80;;
56760;SDS011;42633;44.494;11.356;2022-07-06T12:52:36;5.95;;;2.08;;
56760;SDS011;42633;44.494;11.356;2022-07-06T12:55:41;4.38;;;2.00;;
56760;SDS011;42633;44.494;11.356;2022-07-06T12:58:55;9.13;;;3.33;;
56760;SDS011;42633;44.494;11.356;2022-07-06T13:02:00;3.65;;;2.45;;
56760;SDS011;42633;44.494;11.356;2022-07-06T13:08:10;6.95;;;2.90;;
56760;SDS011;42633;44.494;11.356;2022-07-06T13:11:14;5.90;;;2.33;;
56760;SDS011;42633;44.494;11.356;2022-07-06T13:14:18;4.57;;;2.05;;
56760;SDS011;42633;44.494;11.356;2022-07-06T13:17:23;9.63;;;3.22;;
56760;SDS011;42633;44.494;11.356;2022-07-06T13:20:27;5.70;;;1.95;;
56760;SDS011;42633;44.494;11.356;2022-07-06T13:23:32;17.23;;;3.83;;
56760;SDS011;42633;44.494;11.356;2022-07-06T13:26:36;2.58;;;1.70;;
56760;SDS011;42633;44.494;11.356;2022-07-06T13:29:42;3.33;;;1.80;;
56760;SDS011;42633;44.494;11.356;2022-07-06T13:32:46;8.23;;;3.10;;
56760;SDS011;42633;44.494;11.356;2022-07-06T13:35:50;3.25;;;1.83;;
56760;SDS011;42633;44.494;11.356;2022-07-06T13:38:54;5.65;;;1.67;;
56760;SDS011;42633;44.494;11.356;2022-07-06T13:41:58;3.50;;;1.67;;
56760;SDS011;42633;44.494;11.356;2022-07-06T13:45:02;4.45;;;1.73;;
56760;SDS011;42633;44.494;11.356;2022-07-06T13:48:07;8.35;;;1.80;;
56760;SDS011;42633;44.494;11.356;2022-07-06T13:51:11;4.47;;;2.10;;
56760;SDS011;42633;44.494;11.356;2022-07-06T13:54:15;2.88;;;1.80;;
56760;SDS011;42633;44.494;11.356;2022-07-06T13:57:19;7.82;;;1.80;;
56760;SDS011;42633;44.494;11.356;2022-07-06T14:00:24;6.30;;;1.75;;
56760;SDS011;42633;44.494;11.356;2022-07-06T14:03:28;3.55;;;1.50;;
56760;SDS011;42633;44.494;11.356;2022-07-06T14:06:32;12.05;;;3.50;;
56760;SDS011;42633;44.494;11.356;2022-07-06T14:09:36;6.22;;;2.30;;
56760;SDS011;42633;44.494;11.356;2022-07-06T14:12:40;7.88;;;1.08;;
56760;SDS011;42633;44.494;11.356;2022-07-06T14:15:45;4.65;;;1.50;;
56760;SDS011;42633;44.494;11.356;2022-07-06T14:18:49;5.35;;;1.42;;
56760;SDS011;42633;44.494;11.356;2022-07-06T14:21:54;3.08;;;1.67;;
56760;SDS011;42633;44.494;11.356;2022-07-06T14:24:58;2.67;;;1.85;;
56760;SDS011;42633;44.494;11.356;2022-07-06T14:28:03;3.63;;;1.50;;
56760;SDS011;42633;44.494;11.356;2022-07-06T14:31:08;4.80;;;1.77;;
56760;SDS011;42633;44.494;11.356;2022-07-06T14:34:12;3.65;;;1.40;;
56760;SDS011;42633;44.494;11.356;2022-07-06T14:37:17;3.67;;;1.52;;
56760;SDS011;42633;44.494;11.356;2022-07-06T14:40:21;4.93;;;1.27;;
56760;SDS011;42633;44.494;11.356;2022-07-06T14:43:25;5.25;;;1.45;;
56760;SDS011;42633;44.494;11.356;2022-07-06T14:46:29;3.78;;;1.40;;
56760;SDS011;42633;44.494;11.356;2022-07-06T14:49:34;4.05;;;1.30;;
56760;SDS011;42633;44.494;11.356;2022-07-06T14:52:38;5.63;;;1.60;;
56760;SDS011;42633;44.494;11.356;2022-07-06T14:55:42;7.75;;;3.90;;
56760;SDS011;42633;44.494;11.356;2022-07-06T14:58:46;5.13;;;2.40;;
56760;SDS011;42633;44.494;11.356;2022-07-06T15:01:50;10.15;;;2.67;;
56760;SDS011;42633;44.494;11.356;2022-07-06T15:04:54;4.32;;;1.30;;
56760;SDS011;42633;44.494;11.356;2022-07-06T15:07:58;3.63;;;1.67;;
56760;SDS011;42633;44.494;11.356;2022-07-06T15:11:02;3.92;;;1.58;;
56760;SDS011;42633;44.494;11.356;2022-07-06T15:14:07;4.53;;;1.10;;
56760;SDS011;42633;44.494;11.356;2022-07-06T15:17:11;2.05;;;1.20;;
56760;SDS011;42633;44.494;11.356;2022-07-06T15:20:15;4.15;;;1.50;;
56760;SDS011;42633;44.494;11.356;2022-07-06T15:23:20;3.47;;;1.35;;
56760;SDS011;42633;44.494;11.356;2022-07-06T15:26:24;5.15;;;1.70;;
56760;SDS011;42633;44.494;11.356;2022-07-06T15:29:29;4.55;;;1.30;;
56760;SDS011;42633;44.494;11.356;2022-07-06T15:32:35;4.93;;;1.38;;
56760;SDS011;42633;44.494;11.356;2022-07-06T15:35:38;5.32;;;1.25;;
56760;SDS011;42633;44.494;11.356;2022-07-06T15:38:42;4.43;;;1.15;;
56760;SDS011;42633;44.494;11.356;2022-07-06T15:41:46;5.97;;;2.17;;
56760;SDS011;42633;44.494;11.356;2022-07-06T15:44:50;1.92;;;0.95;;
56760;SDS011;42633;44.494;11.356;2022-07-06T15:47:56;1.70;;;1.15;;
56760;SDS011;42633;44.494;11.356;2022-07-06T15:51:00;4.65;;;1.38;;
56760;SDS011;42633;44.494;11.356;2022-07-06T15:54:04;4.70;;;1.10;;
56760;SDS011;42633;44.494;11.356;2022-07-06T15:57:09;8.70;;;1.38;;
56760;SDS011;42633;44.494;11.356;2022-07-06T16:00:14;4.55;;;1.40;;
56760;SDS011;42633;44.494;11.356;2022-07-06T16:03:18;2.97;;;1.10;;
56760;SDS011;42633;44.494;11.356;2022-07-06T16:06:22;6.45;;;2.30;;
56760;SDS011;42633;44.494;11.356;2022-07-06T16:09:26;5.15;;;1.35;;
56760;SDS011;42633;44.494;11.356;2022-07-06T16:12:30;5.55;;;1.23;;
56760;SDS011;42633;44.494;11.356;2022-07-06T16:15:34;3.55;;;2.00;;
56760;SDS011;42633;44.494;11.356;2022-07-06T16:18:39;3.10;;;1.00;;
56760;SDS011;42633;44.494;11.356;2022-07-06T16:21:44;4.78;;;1.40;;
56760;SDS011;42633;44.494;11.356;2022-07-06T16:24:48;5.97;;;1.33;;
56760;SDS011;42633;44.494;11.356;2022-07-06T16:27:52;6.28;;;1.58;;
56760;SDS011;42633;44.494;11.356;2022-07-06T16:30:56;3.28;;;1.50;;
56760;SDS011;42633;44.494;11.356;2022-07-06T16:34:00;3.05;;;1.05;;
56760;SDS011;42633;44.494;11.356;2022-07-06T16:37:04;3.28;;;1.23;;
56760;SDS011;42633;44.494;11.356;2022-07-06T16:40:09;4.32;;;0.80;;
56760;SDS011;42633;44.494;11.356;2022-07-06T16:43:13;2.42;;;1.30;;
56760;SDS011;42633;44.494;11.356;2022-07-06T16:46:18;8.00;;;1.60;;
56760;SDS011;42633;44.494;11.356;2022-07-06T16:49:23;1.77;;;1.10;;
56760;SDS011;42633;44.494;11.356;2022-07-06T16:52:28;3.53;;;1.60;;
56760;SDS011;42633;44.494;11.356;2022-07-06T16:55:32;1.98;;;0.90;;
56760;SDS011;42633;44.494;11.356;2022-07-06T16:58:37;3.85;;;1.52;;
56760;SDS011;42633;44.494;11.356;2022-07-06T17:01:41;3.72;;;1.80;;
56760;SDS011;42633;44.494;11.356;2022-07-06T17:04:46;2.63;;;1.20;;
56760;SDS011;42633;44.494;11.356;2022-07-06T17:07:50;4.97;;;1.75;;
56760;SDS011;42633;44.494;11.356;2022-07-06T17:10:55;2.55;;;1.30;;
56760;SDS011;42633;44.494;11.356;2022-07-06T17:13:59;1.30;;;0.88;;
56760;SDS011;42633;44.494;11.356;2022-07-06T17:17:03;4.10;;;1.23;;
56760;SDS011;42633;44.494;11.356;2022-07-06T17:20:08;1.83;;;1.35;;
56760;SDS011;42633;44.494;11.356;2022-07-06T17:23:12;3.00;;;1.83;;
56760;SDS011;42633;44.494;11.356;2022-07-06T17:26:16;8.38;;;4.05;;
56760;SDS011;42633;44.494;11.356;2022-07-06T17:29:21;5.75;;;2.92;;
56760;SDS011;42633;44.494;11.356;2022-07-06T17:32:25;2.58;;;0.85;;
56760;SDS011;42633;44.494;11.356;2022-07-06T17:35:29;4.55;;;1.60;;
56760;SDS011;42633;44.494;11.356;2022-07-06T17:38:34;3.03;;;1.20;;
56760;SDS011;42633;44.494;11.356;2022-07-06T17:41:38;5.18;;;1.13;;
56760;SDS011;42633;44.494;11.356;2022-07-06T17:44:42;2.45;;;1.08;;
56760;SDS011;42633;44.494;11.356;2022-07-06T17:47:46;2.42;;;1.42;;
56760;SDS011;42633;44.494;11.356;2022-07-06T17:50:51;6.10;;;1.92;;
56760;SDS011;42633;44.494;11.356;2022-07-06T17:53:54;4.25;;;2.00;;
56760;SDS011;42633;44.494;11.356;2022-07-06T17:56:59;5.43;;;1.70;;
56760;SDS011;42633;44.494;11.356;2022-07-06T18:00:04;5.47;;;2.22;;
56760;SDS011;42633;44.494;11.356;2022-07-06T18:03:11;2.63;;;2.08;;
56760;SDS011;42633;44.494;11.356;2022-07-06T18:06:15;5.55;;;2.30;;
56760;SDS011;42633;44.494;11.356;2022-07-06T18:09:19;4.90;;;1.80;;
56760;SDS011;42633;44.494;11.356;2022-07-06T18:12:23;5.30;;;1.65;;
56760;SDS011;42633;44.494;11.356;2022-07-06T18:15:28;2.65;;;1.33;;
56760;SDS011;42633;44.494;11.356;2022-07-06T18:22:06;3.42;;;1.67;;
56760;SDS011;42633;44.494;11.356;2022-07-06T18:25:10;6.35;;;1.88;;
56760;SDS011;42633;44.494;11.356;2022-07-06T18:28:22;2.97;;;1.10;;
56760;SDS011;42633;44.494;11.356;2022-07-06T18:31:33;4.30;;;2.53;;
56760;SDS011;42633;44.494;11.356;2022-07-06T18:34:40;12.13;;;7.70;;